Time;durP1;ratioP1;P1;durP2;ratioP2;P2;SDS_P1;SDS_P2;PMS_P1;PMS_P2;Temp;Humidity;BMP_temperature;BMP_pressure;BME280_temperature;BME280_humidity;BME280_pressure;Samples;Min_cycle;Max_cycle;Signal;HPM_P1;HPM_P2
2023/09/26 00:01:43;;;;;;;4.57;2.30;;;15.20;99.90;;;;;;5010658;28;20061;-74
2023/09/26 00:04:08;;;;;;;4.30;2.45;;;15.10;99.90;;;;;;5023150;28;20326;-73
2023/09/26 00:06:34;;;;;;;5.40;2.55;;;15.10;99.90;;;;;;5026104;28;20037;-73
2023/09/26 00:08:59;;;;;;;5.93;3.03;;;15.10;99.90;;;;;;5012425;28;20124;-74
2023/09/26 00:11:25;;;;;;;4.88;2.42;;;15.10;99.90;;;;;;5026069;28;20033;-74
2023/09/26 00:13:51;;;;;;;5.68;2.53;;;15.20;99.90;;;;;;5026797;28;20033;-73
2023/09/26 00:16:17;;;;;;;4.97;2.60;;;15.20;99.90;;;;;;5009229;28;20124;-73
2023/09/26 00:18:42;;;;;;;5.25;2.70;;;15.10;99.90;;;;;;5028712;28;20136;-73
2023/09/26 00:21:10;;;;;;;4.20;2.40;;;15.20;99.90;;;;;;5025081;28;20049;-73
2023/09/26 00:23:36;;;;;;;5.35;2.70;;;15.10;99.90;;;;;;5041532;28;20052;-73
2023/09/26 00:26:04;;;;;;;4.05;2.25;;;15.10;99.90;;;;;;5026265;28;20025;-73
2023/09/26 00:28:30;;;;;;;5.07;2.80;;;15.10;99.90;;;;;;5007691;28;20033;-74
2023/09/26 00:30:56;;;;;;;4.38;2.80;;;15.10;99.90;;;;;;5025654;28;20487;-73
2023/09/26 00:33:22;;;;;;;6.03;2.30;;;15.10;99.90;;;;;;5024942;28;20037;-73
2023/09/26 00:35:48;;;;;;;5.75;2.63;;;15.10;99.90;;;;;;5023875;28;20049;-73
2023/09/26 00:38:14;;;;;;;3.78;2.20;;;15.10;99.90;;;;;;5008756;28;20048;-73
2023/09/26 00:40:41;;;;;;;4.68;2.63;;;15.10;99.90;;;;;;5023477;28;20068;-73
2023/09/26 00:43:07;;;;;;;3.30;2.40;;;15.10;99.90;;;;;;5025995;28;20392;-73
2023/09/26 00:45:33;;;;;;;5.53;3.00;;;15.10;99.90;;;;;;5010207;28;20078;-74
2023/09/26 00:47:59;;;;;;;5.70;2.90;;;15.10;99.90;;;;;;5009701;28;20604;-73
2023/09/26 00:50:25;;;;;;;5.28;2.90;;;15.10;99.90;;;;;;5024696;28;20509;-73
2023/09/26 00:52:53;;;;;;;4.82;2.70;;;15.10;99.90;;;;;;5010731;28;20037;-73
2023/09/26 00:55:22;;;;;;;4.22;2.50;;;15.10;99.90;;;;;;5025221;28;20083;-73
2023/09/26 00:57:48;;;;;;;4.43;2.55;;;15.10;99.90;;;;;;5025560;28;20041;-73
2023/09/26 01:00:19;;;;;;;5.82;2.83;;;15.10;99.90;;;;;;5023013;28;20065;-73
2023/09/26 01:02:44;;;;;;;5.20;2.90;;;15.10;99.90;;;;;;5025856;28;20487;-73
2023/09/26 01:05:10;;;;;;;6.70;3.40;;;15.10;99.90;;;;;;5025370;28;20044;-73
2023/09/26 01:07:38;;;;;;;4.15;2.25;;;15.10;99.90;;;;;;5027220;28;20495;-73
2023/09/26 01:10:05;;;;;;;5.00;2.65;;;15.10;99.90;;;;;;5023278;28;20664;-73
2023/09/26 01:12:31;;;;;;;8.30;2.97;;;15.10;99.90;;;;;;5023524;28;20037;-73
2023/09/26 01:14:57;;;;;;;4.05;2.45;;;15.10;99.90;;;;;;5023354;28;20869;-73
2023/09/26 01:17:22;;;;;;;5.40;2.72;;;15.00;99.90;;;;;;5046511;28;20193;-74
2023/09/26 01:19:48;;;;;;;5.05;2.92;;;15.00;99.90;;;;;;5023961;28;20041;-74
2023/09/26 01:22:17;;;;;;;7.43;3.40;;;15.00;99.90;;;;;;5025559;28;20156;-74
2023/09/26 01:24:43;;;;;;;7.15;3.00;;;15.00;99.90;;;;;;5026249;28;20033;-74
2023/09/26 01:27:09;;;;;;;5.18;2.90;;;15.00;99.90;;;;;;5023933;28;20037;-73
2023/09/26 01:29:35;;;;;;;6.93;3.45;;;15.00;99.90;;;;;;5041829;28;20042;-73
2023/09/26 01:32:01;;;;;;;6.00;3.20;;;15.00;99.90;;;;;;5023395;28;20041;-73
2023/09/26 01:34:26;;;;;;;6.70;3.53;;;15.00;99.90;;;;;;5024854;28;20752;-73
2023/09/26 01:36:52;;;;;;;6.13;3.70;;;15.00;99.90;;;;;;5009656;28;20440;-73
2023/09/26 01:39:18;;;;;;;6.78;3.63;;;15.00;99.90;;;;;;5026119;28;20075;-74
2023/09/26 01:41:43;;;;;;;7.03;3.25;;;15.00;99.90;;;;;;5040202;28;20083;-73
2023/09/26 01:44:09;;;;;;;5.95;3.35;;;15.00;99.90;;;;;;5010533;28;20048;-73
2023/09/26 01:46:35;;;;;;;5.38;3.13;;;14.90;99.90;;;;;;5027983;28;20034;-73
2023/09/26 01:49:00;;;;;;;5.57;3.30;;;14.90;99.90;;;;;;5028214;28;20033;-73
2023/09/26 01:51:26;;;;;;;7.22;3.88;;;14.90;99.90;;;;;;5044834;28;20032;-73
2023/09/26 01:53:52;;;;;;;6.68;3.97;;;14.90;99.90;;;;;;5025708;28;20441;-74
2023/09/26 01:56:17;;;;;;;7.22;3.58;;;14.90;99.90;;;;;;5024957;28;20064;-73
2023/09/26 01:58:43;;;;;;;7.22;3.70;;;14.80;99.90;;;;;;5022697;28;20516;-73
2023/09/26 02:01:08;;;;;;;5.90;3.65;;;14.80;99.90;;;;;;5007307;28;20116;-73
2023/09/26 02:03:34;;;;;;;7.05;4.18;;;14.80;99.90;;;;;;5026055;28;20041;-73
2023/09/26 02:06:00;;;;;;;6.45;3.70;;;14.80;99.90;;;;;;5024982;28;20073;-73
2023/09/26 02:08:26;;;;;;;7.15;3.90;;;14.80;99.90;;;;;;5041753;28;20033;-73
2023/09/26 02:10:51;;;;;;;9.00;3.97;;;14.80;99.90;;;;;;5039953;28;20037;-73
2023/09/26 02:13:17;;;;;;;6.53;3.53;;;14.70;99.90;;;;;;5025715;28;20041;-73
2023/09/26 02:15:42;;;;;;;7.22;3.97;;;14.70;99.90;;;;;;5022938;28;20049;-74
2023/09/26 02:18:08;;;;;;;6.63;4.15;;;14.70;99.90;;;;;;5025348;28;20049;-73
2023/09/26 02:20:34;;;;;;;6.95;3.70;;;14.70;99.90;;;;;;5022534;28;20037;-73
2023/09/26 02:22:59;;;;;;;6.15;3.78;;;14.70;99.90;;;;;;5041917;28;20076;-74
2023/09/26 02:25:25;;;;;;;10.88;4.32;;;14.70;99.90;;;;;;5024124;28;20037;-74
2023/09/26 02:27:51;;;;;;;6.53;3.97;;;14.60;99.90;;;;;;5008726;28;20042;-73
2023/09/26 02:30:26;;;;;;;6.88;3.70;;;14.60;99.90;;;;;;5020666;28;20056;-73
2023/09/26 02:32:51;;;;;;;8.35;4.22;;;14.60;99.90;;;;;;5023157;28;20041;-73
2023/09/26 02:35:19;;;;;;;5.85;3.28;;;14.60;99.90;;;;;;5024655;28;20380;-73
2023/09/26 02:37:45;;;;;;;7.10;3.85;;;14.60;99.90;;;;;;5025417;28;20051;-73
2023/09/26 02:40:12;;;;;;;5.85;3.75;;;14.60;99.90;;;;;;5006129;28;20033;-73
2023/09/26 02:42:39;;;;;;;9.45;4.78;;;14.60;99.90;;;;;;5024621;28;20462;-73
2023/09/26 02:45:05;;;;;;;7.00;3.83;;;14.60;99.90;;;;;;5021664;28;20037;-73
2023/09/26 02:47:31;;;;;;;6.85;4.00;;;14.60;99.90;;;;;;5024470;28;20064;-73
2023/09/26 02:49:56;;;;;;;6.65;4.07;;;14.60;99.90;;;;;;5007633;28;20068;-73
2023/09/26 02:52:22;;;;;;;5.63;3.72;;;14.60;99.90;;;;;;5023836;28;20033;-74
2023/09/26 02:54:48;;;;;;;9.57;4.72;;;14.60;99.90;;;;;;5023848;28;20037;-73
2023/09/26 02:57:14;;;;;;;8.27;3.80;;;14.60;99.90;;;;;;5016339;28;20029;-73
2023/09/26 02:59:40;;;;;;;7.07;4.00;;;14.60;99.90;;;;;;5020734;28;20053;-73
2023/09/26 03:02:06;;;;;;;5.40;3.28;;;14.60;99.90;;;;;;5021268;28;20041;-73
2023/09/26 03:04:31;;;;;;;7.40;4.03;;;14.60;99.90;;;;;;5022351;28;20055;-73
2023/09/26 03:06:57;;;;;;;8.90;4.60;;;14.50;99.90;;;;;;5027647;28;20036;-74
2023/09/26 03:09:23;;;;;;;7.85;3.97;;;14.50;99.90;;;;;;5024836;28;20114;-73
2023/09/26 03:11:48;;;;;;;7.28;3.92;;;14.50;99.90;;;;;;5021537;28;20044;-73
2023/09/26 03:14:14;;;;;;;7.30;4.18;;;14.50;99.90;;;;;;5003911;28;20037;-73
2023/09/26 03:16:40;;;;;;;8.60;4.30;;;14.50;99.90;;;;;;5039959;28;20322;-73
2023/09/26 03:19:07;;;;;;;8.18;4.07;;;14.40;99.90;;;;;;5007136;28;20120;-73
2023/09/26 03:21:33;;;;;;;7.25;3.90;;;14.40;99.90;;;;;;5024973;28;20025;-73
2023/09/26 03:23:58;;;;;;;6.03;3.40;;;14.30;99.90;;;;;;5006721;28;21185;-73
2023/09/26 03:26:24;;;;;;;7.75;3.83;;;14.30;99.90;;;;;;5022240;28;20543;-73
2023/09/26 03:28:49;;;;;;;7.32;4.15;;;14.30;99.90;;;;;;5025028;28;20025;-73
2023/09/26 03:31:15;;;;;;;6.72;4.03;;;14.30;99.90;;;;;;5010638;28;20124;-73
2023/09/26 03:33:40;;;;;;;6.28;4.28;;;14.20;99.90;;;;;;5028835;28;20426;-73
2023/09/26 03:36:07;;;;;;;5.95;3.90;;;14.20;99.90;;;;;;5012435;28;20030;-73
2023/09/26 03:38:33;;;;;;;6.20;3.63;;;14.20;99.90;;;;;;5029325;28;20609;-73
2023/09/26 03:41:06;;;;;;;9.55;3.90;;;14.20;99.90;;;;;;5011916;28;20038;-73
2023/09/26 03:43:32;;;;;;;7.85;3.92;;;14.10;99.90;;;;;;5031623;28;20049;-74
2023/09/26 03:46:04;;;;;;;7.00;3.92;;;14.10;99.90;;;;;;5033829;28;20052;-73
2023/09/26 03:48:30;;;;;;;7.95;4.57;;;14.10;99.90;;;;;;5034313;28;20525;-73
2023/09/26 03:51:15;;;;;;;7.05;3.72;;;14.10;99.90;;;;;;5032125;28;20030;-73
2023/09/26 03:53:42;;;;;;;5.93;3.45;;;14.00;99.90;;;;;;5027821;28;20064;-74
2023/09/26 03:56:08;;;;;;;8.43;4.57;;;14.10;99.90;;;;;;5029621;28;20041;-74
2023/09/26 03:58:35;;;;;;;10.52;4.30;;;14.00;99.90;;;;;;5045450;28;20134;-73
2023/09/26 04:01:16;;;;;;;7.55;4.45;;;14.00;99.90;;;;;;5028493;28;20128;-73
2023/09/26 04:03:46;;;;;;;8.57;4.40;;;13.90;99.90;;;;;;5030266;28;20040;-73
2023/09/26 04:06:12;;;;;;;9.02;4.45;;;13.90;99.90;;;;;;5030745;28;20250;-73
2023/09/26 04:08:38;;;;;;;8.02;4.22;;;13.80;99.90;;;;;;5029310;28;20434;-73
2023/09/26 04:11:04;;;;;;;6.25;3.45;;;13.80;99.90;;;;;;5008015;28;20029;-73
2023/09/26 04:13:29;;;;;;;6.43;4.07;;;13.80;99.90;;;;;;5028900;28;20088;-73
2023/09/26 04:15:55;;;;;;;8.65;4.55;;;13.70;99.90;;;;;;5013625;28;20037;-73
2023/09/26 04:18:22;;;;;;;7.72;4.20;;;13.70;99.90;;;;;;5031505;28;20037;-73
2023/09/26 04:20:49;;;;;;;7.32;4.03;;;13.70;99.90;;;;;;5029219;28;20051;-73
2023/09/26 04:23:15;;;;;;;6.90;4.25;;;13.70;99.90;;;;;;5025803;28;21777;-73
2023/09/26 04:25:40;;;;;;;7.68;3.92;;;13.60;99.90;;;;;;5009255;28;20041;-73
2023/09/26 04:28:06;;;;;;;7.28;3.92;;;13.60;99.90;;;;;;5026730;28;20150;-73
2023/09/26 04:30:36;;;;;;;6.68;3.85;;;13.60;99.90;;;;;;5024586;28;20045;-73
2023/09/26 04:33:02;;;;;;;7.18;4.18;;;13.50;99.90;;;;;;5026298;28;20398;-73
2023/09/26 04:35:27;;;;;;;7.65;4.20;;;13.50;99.90;;;;;;5028082;28;20050;-73
2023/09/26 04:37:53;;;;;;;8.02;3.88;;;13.50;99.90;;;;;;5045815;28;20056;-73
2023/09/26 04:40:19;;;;;;;5.40;3.25;;;13.50;99.90;;;;;;5008170;28;20037;-73
2023/09/26 04:42:49;;;;;;;6.97;4.00;;;13.50;99.90;;;;;;5024762;28;20531;-73
2023/09/26 04:45:15;;;;;;;8.05;3.83;;;13.50;99.90;;;;;;5025806;28;20117;-73
2023/09/26 04:47:41;;;;;;;8.20;3.60;;;13.50;99.90;;;;;;5007740;28;20120;-73
2023/09/26 04:50:07;;;;;;;11.30;4.03;;;13.40;99.90;;;;;;5027840;28;20163;-73
2023/09/26 04:52:33;;;;;;;9.68;3.80;;;13.50;99.90;;;;;;5026842;28;20515;-73
2023/09/26 04:54:59;;;;;;;8.65;4.25;;;13.40;99.90;;;;;;5024646;28;20063;-73
2023/09/26 04:57:25;;;;;;;6.75;3.65;;;13.40;99.90;;;;;;5023373;28;20033;-73
2023/09/26 04:59:50;;;;;;;8.55;4.07;;;13.40;99.90;;;;;;5024895;28;20031;-73
2023/09/26 05:02:16;;;;;;;5.13;2.80;;;13.40;99.90;;;;;;5024294;28;20047;-73
2023/09/26 05:04:41;;;;;;;5.05;2.90;;;13.40;99.90;;;;;;5026512;28;20078;-73
2023/09/26 05:07:09;;;;;;;5.05;3.28;;;13.40;99.90;;;;;;5009312;28;20483;-73
2023/09/26 05:09:36;;;;;;;6.03;3.22;;;13.40;99.90;;;;;;5025529;28;20033;-73
2023/09/26 05:12:02;;;;;;;9.82;3.53;;;13.30;99.90;;;;;;5040279;28;20117;-73
2023/09/26 05:14:28;;;;;;;5.93;3.58;;;13.30;99.90;;;;;;5042714;28;20088;-73
2023/09/26 05:16:54;;;;;;;5.50;3.42;;;13.30;99.90;;;;;;5027371;28;20029;-73
2023/09/26 05:19:19;;;;;;;12.38;4.20;;;13.20;99.90;;;;;;5008406;28;20529;-73
2023/09/26 05:21:45;;;;;;;8.45;4.05;;;13.20;99.90;;;;;;5025984;28;20034;-73
2023/09/26 05:24:10;;;;;;;9.25;4.05;;;13.20;99.90;;;;;;5026023;28;20057;-73
2023/09/26 05:26:36;;;;;;;8.05;4.68;;;13.20;99.90;;;;;;5023605;28;20037;-73
2023/09/26 05:29:02;;;;;;;7.00;3.85;;;13.20;99.90;;;;;;5025347;28;20033;-73
2023/09/26 05:31:30;;;;;;;7.30;4.03;;;13.20;99.90;;;;;;5025222;28;20044;-73
2023/09/26 05:33:56;;;;;;;7.57;4.30;;;13.20;99.90;;;;;;5044548;28;20045;-73
2023/09/26 05:36:22;;;;;;;9.57;4.25;;;13.20;99.90;;;;;;5027887;28;20060;-73
2023/09/26 05:38:48;;;;;;;8.10;4.68;;;13.20;99.90;;;;;;5029588;28;20041;-73
2023/09/26 05:41:13;;;;;;;7.75;4.28;;;13.20;99.90;;;;;;5023866;28;20108;-73
2023/09/26 05:43:39;;;;;;;9.30;5.00;;;13.20;99.90;;;;;;5025175;28;20487;-73
2023/09/26 05:46:05;;;;;;;9.55;4.32;;;13.20;99.90;;;;;;5028926;28;20037;-73
2023/09/26 05:48:31;;;;;;;7.07;4.20;;;13.20;99.90;;;;;;5029354;28;20041;-73
2023/09/26 05:51:00;;;;;;;7.78;4.68;;;13.20;99.90;;;;;;5010789;28;20585;-73
2023/09/26 05:53:26;;;;;;;10.48;4.60;;;13.20;99.90;;;;;;5026114;28;20041;-73
2023/09/26 05:55:52;;;;;;;7.72;4.70;;;13.20;99.90;;;;;;5040941;28;20128;-73
2023/09/26 05:58:21;;;;;;;9.60;5.05;;;13.20;99.90;;;;;;5026819;28;20136;-73
2023/09/26 06:00:47;;;;;;;7.28;4.43;;;13.20;99.90;;;;;;5004317;28;20045;-73
2023/09/26 06:03:14;;;;;;;8.73;4.43;;;13.20;99.90;;;;;;5004074;28;20035;-73
2023/09/26 06:05:40;;;;;;;8.32;4.13;;;13.20;99.90;;;;;;5025228;28;20407;-73
2023/09/26 06:08:06;;;;;;;9.55;4.30;;;13.20;99.90;;;;;;5026085;28;20038;-73
2023/09/26 06:10:32;;;;;;;7.28;4.45;;;13.30;99.90;;;;;;5023582;28;20044;-73
2023/09/26 06:12:57;;;;;;;8.05;4.25;;;13.20;99.90;;;;;;5039972;28;20033;-73
2023/09/26 06:15:23;;;;;;;7.65;4.28;;;13.30;99.90;;;;;;5008988;28;20048;-73
2023/09/26 06:17:50;;;;;;;8.68;4.20;;;13.30;99.90;;;;;;5024475;28;20068;-73
2023/09/26 06:20:15;;;;;;;7.07;3.88;;;13.30;99.90;;;;;;5043132;28;20053;-73
2023/09/26 06:22:41;;;;;;;8.75;4.75;;;13.30;99.90;;;;;;5025697;28;20045;-73
2023/09/26 06:25:07;;;;;;;7.43;4.20;;;13.30;99.90;;;;;;5023337;28;20116;-73
2023/09/26 06:27:36;;;;;;;7.93;4.78;;;13.40;99.90;;;;;;5021697;28;20483;-73
2023/09/26 06:30:02;;;;;;;6.40;4.25;;;13.40;99.90;;;;;;5024387;28;20041;-73
2023/09/26 06:32:27;;;;;;;9.02;4.18;;;13.50;99.90;;;;;;5023732;28;20040;-74
2023/09/26 06:34:58;;;;;;;7.47;4.50;;;13.40;99.90;;;;;;5024631;28;20411;-72
2023/09/26 06:37:23;;;;;;;8.68;4.57;;;13.40;99.90;;;;;;5005885;28;20048;-73
2023/09/26 06:39:49;;;;;;;7.55;4.68;;;13.40;99.90;;;;;;5014072;28;20037;-73
2023/09/26 06:42:14;;;;;;;8.98;3.90;;;13.50;99.90;;;;;;5022246;28;20041;-73
2023/09/26 06:44:40;;;;;;;11.15;5.10;;;13.50;99.90;;;;;;5024109;28;20067;-72
2023/09/26 06:47:05;;;;;;;9.52;5.13;;;13.50;99.90;;;;;;5022818;28;20172;-74
2023/09/26 06:49:33;;;;;;;7.03;4.30;;;13.50;99.90;;;;;;5024503;28;20064;-73
2023/09/26 06:51:58;;;;;;;8.48;4.82;;;13.60;99.90;;;;;;5017311;28;20037;-72
2023/09/26 06:54:24;;;;;;;9.38;4.93;;;13.60;99.90;;;;;;5002586;28;20037;-73
2023/09/26 06:56:51;;;;;;;8.70;4.25;;;13.70;99.90;;;;;;5005242;28;20098;-74
2023/09/26 06:59:16;;;;;;;8.55;5.10;;;13.70;99.90;;;;;;5020960;28;20171;-73
2023/09/26 07:01:42;;;;;;;9.18;5.13;;;13.60;99.90;;;;;;5022540;28;20144;-73
2023/09/26 07:04:14;;;;;;;10.82;4.82;;;13.70;99.90;;;;;;5020805;28;20044;-73
2023/09/26 07:06:40;;;;;;;6.97;4.28;;;13.70;99.90;;;;;;5020579;28;20443;-74
2023/09/26 07:09:07;;;;;;;7.55;3.95;;;13.70;99.90;;;;;;5017506;28;20138;-72
2023/09/26 07:11:33;;;;;;;7.85;3.88;;;13.80;99.90;;;;;;5005217;28;20529;-73
2023/09/26 07:13:58;;;;;;;9.07;4.53;;;13.80;99.90;;;;;;5023464;28;20041;-73
2023/09/26 07:16:24;;;;;;;7.68;3.83;;;13.80;99.90;;;;;;5002860;28;20060;-73
2023/09/26 07:18:50;;;;;;;6.93;4.05;;;13.80;99.90;;;;;;5006410;28;20087;-73
2023/09/26 07:21:16;;;;;;;10.23;4.40;;;13.80;99.90;;;;;;5023566;28;20048;-74
2023/09/26 07:23:41;;;;;;;7.35;4.47;;;13.90;99.90;;;;;;5017794;28;20034;-73
2023/09/26 07:26:12;;;;;;;8.65;4.65;;;14.00;99.90;;;;;;5019791;28;20034;-72
2023/09/26 07:28:41;;;;;;;7.95;4.20;;;14.00;99.90;;;;;;5005266;28;20086;-72
2023/09/26 07:31:09;;;;;;;7.82;4.35;;;14.10;99.90;;;;;;5000304;28;20550;-73
2023/09/26 07:33:35;;;;;;;8.32;4.22;;;14.10;99.90;;;;;;5001418;28;20099;-73
2023/09/26 07:36:01;;;;;;;8.07;4.30;;;14.10;99.90;;;;;;5022754;28;20049;-73
2023/09/26 07:38:26;;;;;;;9.15;3.92;;;14.20;99.90;;;;;;5018258;28;20047;-73
2023/09/26 07:40:52;;;;;;;6.70;3.58;;;14.20;99.90;;;;;;5020211;28;20037;-72
2023/09/26 07:43:18;;;;;;;6.93;3.42;;;14.30;99.90;;;;;;5021254;28;20436;-73
2023/09/26 07:45:44;;;;;;;6.32;3.38;;;14.30;99.90;;;;;;4999677;28;20042;-74
2023/09/26 07:48:10;;;;;;;7.15;3.88;;;14.30;99.90;;;;;;5021608;28;20123;-73
2023/09/26 07:50:35;;;;;;;6.13;3.45;;;14.30;99.90;;;;;;5023255;28;20037;-73
2023/09/26 07:53:04;;;;;;;6.10;3.20;;;14.40;99.90;;;;;;5019402;28;20482;-73
2023/09/26 07:55:29;;;;;;;6.53;3.47;;;14.40;99.90;;;;;;5005348;28;20048;-73
2023/09/26 07:57:55;;;;;;;7.97;4.10;;;14.40;99.90;;;;;;5016873;28;20045;-72
2023/09/26 08:00:21;;;;;;;7.65;3.70;;;14.50;99.90;;;;;;5021463;28;20037;-72
2023/09/26 08:02:46;;;;;;;6.88;3.17;;;14.50;99.90;;;;;;5037051;28;20048;-72
2023/09/26 08:05:12;;;;;;;7.03;3.70;;;14.60;99.90;;;;;;5020241;28;20041;-72
2023/09/26 08:07:42;;;;;;;6.60;3.00;;;14.60;99.90;;;;;;5004254;28;20396;-73
2023/09/26 08:10:08;;;;;;;5.90;3.10;;;14.70;99.90;;;;;;5018958;28;20042;-72
2023/09/26 08:12:35;;;;;;;7.10;3.65;;;14.70;99.90;;;;;;5022479;28;20491;-73
2023/09/26 08:15:01;;;;;;;7.05;3.70;;;14.80;99.90;;;;;;5020239;28;20038;-72
2023/09/26 08:17:27;;;;;;;5.78;3.10;;;14.80;99.90;;;;;;5024113;28;20033;-72
2023/09/26 08:19:52;;;;;;;7.10;2.75;;;14.90;99.90;;;;;;5003915;28;20164;-72
2023/09/26 08:22:18;;;;;;;6.18;3.20;;;14.90;99.90;;;;;;5039758;28;20108;-73
2023/09/26 08:24:44;;;;;;;5.93;3.13;;;15.00;99.90;;;;;;5004514;28;20491;-72
2023/09/26 08:27:10;;;;;;;7.13;3.60;;;15.00;99.90;;;;;;5005506;28;20034;-72
2023/09/26 08:29:35;;;;;;;10.43;3.72;;;15.00;99.90;;;;;;5026179;28;20033;-73
2023/09/26 08:32:01;;;;;;;6.00;2.80;;;15.10;99.90;;;;;;5023913;28;20383;-72
2023/09/26 08:34:26;;;;;;;5.53;3.13;;;15.10;99.90;;;;;;5038755;28;20045;-73
2023/09/26 08:36:52;;;;;;;6.88;3.33;;;15.10;99.90;;;;;;5009662;28;20380;-73
2023/09/26 08:39:18;;;;;;;5.90;2.90;;;15.30;99.90;;;;;;5027258;28;20045;-76
2023/09/26 08:41:47;;;;;;;6.20;3.97;;;15.20;99.90;;;;;;5024547;28;20253;-73
2023/09/26 08:44:12;;;;;;;4.78;2.70;;;15.30;99.90;;;;;;5023134;28;20042;-74
2023/09/26 08:46:45;;;;;;;6.28;2.28;;;15.30;99.90;;;;;;5024542;28;20164;-73
2023/09/26 08:49:10;;;;;;;5.72;3.13;;;15.30;99.90;;;;;;5006291;28;20045;-75
2023/09/26 08:51:36;;;;;;;8.63;2.80;;;15.40;99.90;;;;;;5005821;28;20083;-73
2023/09/26 08:54:03;;;;;;;5.47;2.47;;;15.40;99.90;;;;;;5028352;28;20045;-74
2023/09/26 08:56:31;;;;;;;4.70;3.13;;;15.40;99.90;;;;;;5029373;28;20045;-74
2023/09/26 08:58:58;;;;;;;5.38;3.00;;;15.40;99.90;;;;;;5025695;28;20049;-74
2023/09/26 09:01:24;;;;;;;5.05;2.47;;;15.50;99.90;;;;;;5021805;28;20050;-73
2023/09/26 09:03:50;;;;;;;8.13;3.00;;;15.50;99.90;;;;;;5005861;28;20252;-73
2023/09/26 09:06:15;;;;;;;7.75;3.10;;;15.60;99.90;;;;;;5023364;28;20374;-73
2023/09/26 09:08:41;;;;;;;6.07;3.00;;;15.60;99.90;;;;;;5019728;28;20521;-72
2023/09/26 09:11:06;;;;;;;6.35;3.22;;;15.70;99.90;;;;;;5005507;28;20068;-73
2023/09/26 09:13:34;;;;;;;6.20;2.63;;;15.70;99.90;;;;;;5025829;28;20038;-73
2023/09/26 09:16:09;;;;;;;5.72;2.92;;;15.70;99.90;;;;;;5036972;28;20087;-74
2023/09/26 09:18:35;;;;;;;4.53;2.53;;;15.80;99.90;;;;;;5027317;28;20037;-73
2023/09/26 09:21:27;;;;;;;5.30;2.95;;;15.80;99.90;;;;;;5008383;28;20048;-73
2023/09/26 09:23:54;;;;;;;7.35;2.88;;;15.90;99.90;;;;;;5043554;28;20562;-73
2023/09/26 09:26:22;;;;;;;9.30;3.05;;;15.90;99.90;;;;;;5011267;28;20132;-73
2023/09/26 09:28:49;;;;;;;6.65;3.40;;;16.00;99.90;;;;;;5010765;28;20395;-74
2023/09/26 09:31:16;;;;;;;6.55;3.30;;;16.10;99.90;;;;;;5023152;28;20079;-73
2023/09/26 09:33:52;;;;;;;6.40;2.78;;;16.10;99.90;;;;;;5036689;28;20233;-73
2023/09/26 09:36:18;;;;;;;6.10;3.17;;;16.20;99.90;;;;;;5023274;28;20502;-74
2023/09/26 09:38:44;;;;;;;6.03;3.15;;;16.30;99.90;;;;;;5021623;28;20446;-74
2023/09/26 09:41:10;;;;;;;5.10;3.03;;;16.30;99.90;;;;;;5019447;28;20055;-73
2023/09/26 09:43:36;;;;;;;7.18;3.13;;;16.30;99.90;;;;;;5025453;28;20041;-74
2023/09/26 09:46:08;;;;;;;7.85;3.47;;;16.30;99.90;;;;;;5022250;28;20075;-74
2023/09/26 09:48:46;;;;;;;5.13;3.00;;;16.40;99.90;;;;;;5005568;28;20069;-74
2023/09/26 09:51:13;;;;;;;6.32;3.65;;;16.40;99.90;;;;;;5023920;28;20048;-74
2023/09/26 09:53:42;;;;;;;8.48;3.50;;;16.40;99.90;;;;;;4999797;28;20258;-73
2023/09/26 09:56:08;;;;;;;6.28;3.20;;;16.40;99.90;;;;;;5022594;28;20045;-74
2023/09/26 09:58:40;;;;;;;5.38;2.95;;;16.50;99.90;;;;;;5008702;28;20057;-73
2023/09/26 10:01:06;;;;;;;6.93;3.50;;;16.50;99.90;;;;;;5023450;28;20163;-74
2023/09/26 10:03:33;;;;;;;5.82;3.30;;;16.50;99.90;;;;;;5023432;28;20128;-73
2023/09/26 10:05:59;;;;;;;6.45;3.38;;;16.50;99.90;;;;;;5022430;28;20100;-73
2023/09/26 10:08:27;;;;;;;7.38;3.60;;;16.50;99.90;;;;;;5021428;28;20079;-74
2023/09/26 10:10:54;;;;;;;5.38;3.15;;;16.60;99.90;;;;;;5019890;28;20041;-74
2023/09/26 10:13:20;;;;;;;6.93;3.33;;;16.60;99.90;;;;;;5022533;28;20139;-73
2023/09/26 10:16:07;;;;;;;7.93;3.92;;;16.60;99.90;;;;;;5004669;28;20483;-74
2023/09/26 10:18:37;;;;;;;6.95;3.75;;;16.60;99.90;;;;;;5022793;28;20048;-73
2023/09/26 10:21:04;;;;;;;5.65;3.03;;;16.70;99.90;;;;;;5002098;28;20193;-73
2023/09/26 10:23:30;;;;;;;5.50;3.30;;;16.70;99.90;;;;;;5002537;28;20088;-73
2023/09/26 10:25:55;;;;;;;7.13;3.42;;;16.70;99.90;;;;;;5017690;28;20029;-74
2023/09/26 10:28:21;;;;;;;6.50;3.63;;;16.80;99.90;;;;;;5024300;28;20102;-74
2023/09/26 10:30:54;;;;;;;5.93;2.75;;;16.80;99.90;;;;;;5005719;28;20037;-74
2023/09/26 10:33:20;;;;;;;6.72;3.55;;;16.80;99.90;;;;;;5023150;28;20695;-74
2023/09/26 10:35:45;;;;;;;9.07;3.63;;;16.90;99.90;;;;;;5023057;28;20276;-74
2023/09/26 10:38:18;;;;;;;6.78;3.38;;;16.90;99.90;;;;;;5019476;28;20343;-73
2023/09/26 10:40:47;;;;;;;7.43;3.78;;;17.00;99.90;;;;;;4999884;28;20052;-74
2023/09/26 10:43:16;;;;;;;5.57;2.63;;;17.00;99.90;;;;;;5003080;28;20034;-73
2023/09/26 10:45:45;;;;;;;5.35;3.35;;;17.00;99.90;;;;;;5024761;28;20052;-73
2023/09/26 10:48:18;;;;;;;8.00;3.85;;;17.00;99.90;;;;;;5006351;28;20083;-74
2023/09/26 10:50:44;;;;;;;6.35;2.95;;;17.10;99.90;;;;;;5018535;28;20042;-73
2023/09/26 10:53:10;;;;;;;6.30;3.15;;;17.10;99.90;;;;;;5019544;28;20088;-73
2023/09/26 10:55:37;;;;;;;6.78;3.30;;;17.10;99.90;;;;;;5021356;28;20041;-72
2023/09/26 10:58:03;;;;;;;5.72;3.10;;;17.20;99.90;;;;;;5019722;28;20053;-73
2023/09/26 11:00:28;;;;;;;7.43;3.38;;;17.20;99.90;;;;;;5018320;28;20514;-73
2023/09/26 11:02:54;;;;;;;5.95;3.38;;;17.20;99.90;;;;;;5018377;28;20088;-73
2023/09/26 11:05:20;;;;;;;6.85;3.20;;;17.30;99.90;;;;;;5019654;28;20369;-73
2023/09/26 11:07:46;;;;;;;5.30;3.08;;;17.30;99.90;;;;;;5030857;28;20033;-73
2023/09/26 11:10:14;;;;;;;7.32;3.40;;;17.30;99.90;;;;;;5002619;28;20083;-73
2023/09/26 11:12:39;;;;;;;4.63;2.70;;;17.30;99.90;;;;;;5021306;28;20048;-74
2023/09/26 11:15:07;;;;;;;6.13;3.08;;;17.30;99.90;;;;;;5024559;28;20042;-73
2023/09/26 11:17:35;;;;;;;6.97;2.70;;;17.40;99.90;;;;;;5021382;28;20048;-73
2023/09/26 11:20:01;;;;;;;5.35;2.33;;;17.40;99.90;;;;;;5037713;28;20084;-73
2023/09/26 11:22:26;;;;;;;6.45;2.38;;;17.50;99.90;;;;;;5019032;28;20491;-73
2023/09/26 11:25:10;;;;;;;5.45;2.50;;;17.50;99.90;;;;;;5022868;28;20056;-72
2023/09/26 11:27:41;;;;;;;4.05;2.53;;;17.50;99.90;;;;;;5018368;28;20033;-73
2023/09/26 11:30:09;;;;;;;4.95;2.60;;;17.60;99.90;;;;;;5023942;28;20687;-73
2023/09/26 11:32:35;;;;;;;7.38;3.03;;;17.50;99.90;;;;;;5020626;28;20442;-73
2023/09/26 11:35:03;;;;;;;5.43;2.63;;;17.60;99.90;;;;;;5003876;28;20096;-75
2023/09/26 11:37:32;;;;;;;5.53;2.63;;;17.60;99.90;;;;;;5016671;28;20076;-73
2023/09/26 11:39:57;;;;;;;4.43;2.60;;;17.60;99.90;;;;;;5023634;28;20034;-73
2023/09/26 11:42:23;;;;;;;4.30;2.38;;;17.60;99.90;;;;;;5005314;28;20391;-73
2023/09/26 11:44:56;;;;;;;4.30;2.67;;;17.60;99.90;;;;;;5005193;28;20046;-73
2023/09/26 11:47:24;;;;;;;6.03;2.97;;;17.70;99.90;;;;;;5017782;28;20041;-73
2023/09/26 11:49:51;;;;;;;5.00;2.50;;;17.70;99.90;;;;;;5018106;28;20040;-73
2023/09/26 11:52:18;;;;;;;5.28;2.47;;;17.70;99.90;;;;;;5027705;28;20448;-73
2023/09/26 11:54:44;;;;;;;6.05;2.33;;;17.70;99.90;;;;;;5028613;28;20131;-73
2023/09/26 11:57:13;;;;;;;6.65;2.88;;;17.70;99.90;;;;;;5027236;28;20088;-73
2023/09/26 11:59:40;;;;;;;6.80;3.00;;;17.70;99.90;;;;;;5024591;28;20071;-74
2023/09/26 12:02:07;;;;;;;4.93;2.75;;;17.80;99.90;;;;;;5027334;28;20038;-73
2023/09/26 12:04:33;;;;;;;7.28;2.90;;;17.80;99.90;;;;;;5018014;28;20050;-73
2023/09/26 12:06:59;;;;;;;3.78;2.83;;;17.80;99.90;;;;;;5021590;28;20044;-73
2023/09/26 12:09:27;;;;;;;4.75;2.75;;;17.80;99.90;;;;;;5023106;28;20041;-73
2023/09/26 12:11:53;;;;;;;5.97;2.92;;;17.80;99.90;;;;;;5028526;28;20120;-74
2023/09/26 12:14:19;;;;;;;7.32;3.38;;;17.90;99.90;;;;;;5028878;28;20142;-74
2023/09/26 12:16:49;;;;;;;4.38;2.47;;;17.90;99.90;;;;;;5026735;28;20060;-74
2023/09/26 12:19:15;;;;;;;6.10;2.88;;;17.90;99.90;;;;;;5026537;28;20053;-74
2023/09/26 12:21:41;;;;;;;4.68;2.80;;;17.90;99.90;;;;;;5027977;28;20071;-74
2023/09/26 12:24:07;;;;;;;5.93;3.00;;;17.90;99.90;;;;;;5010940;28;20041;-74
2023/09/26 12:26:33;;;;;;;6.22;3.38;;;18.00;99.90;;;;;;5025086;28;20060;-74
2023/09/26 12:28:58;;;;;;;5.30;3.00;;;18.00;99.90;;;;;;5040027;28;20442;-74
2023/09/26 12:31:24;;;;;;;6.15;3.10;;;18.00;99.90;;;;;;5026329;28;20041;-74
2023/09/26 12:33:49;;;;;;;5.25;2.80;;;18.00;99.90;;;;;;5029537;28;20053;-74
2023/09/26 12:36:15;;;;;;;6.25;3.30;;;18.00;99.90;;;;;;5041296;28;20537;-74
2023/09/26 12:38:41;;;;;;;5.43;3.00;;;18.10;99.90;;;;;;5024017;28;20495;-74
2023/09/26 12:41:07;;;;;;;5.10;2.85;;;18.10;99.90;;;;;;5039144;28;20475;-74
2023/09/26 12:43:33;;;;;;;6.80;3.53;;;18.10;99.90;;;;;;5026353;28;20128;-74